Portada
METAR-TAF:

METAR-TAF

Aeroports :

Tanabe, Japó

latitud: 33-44N, longitud: 135-23E, altitud: 105 m

Observació

L'informe es va fer fa 7 hores i 59 minuts, a les 10:00 UTC
Vent 8 kt del Sud/Sud-Est, variant entre Est/Sud-Est i Sud
Temperatura 18°C
Humitat 100%
Pressió 1005 hPa
Visibilitat: 4000 m
Escasses núvols a una alçada de 100 ft
Núvols disperses a una alçada de 300 ft
Cel ennuvolat a una alçada de 400 ft
boirina

METAR: RJBD 211000Z 16008KT 120V190 4000 BR FEW001 SCT003 BKN004 18/18 Q1005

Hora: 02:59 (17:59 UTC)


TAF: manca

Observacions i pronòstics meteorològics de més de 4000 aeroports (METAR i TAF).

Les estacions disponibles són els punts grocs i vermells al mapa.

Posi el ratolí al punt desitjat per veure el nom de l'estació.

Feu clic per veure les observacions i els pronòstics meteorològics.

Per canviar el mapa: feu clic els botons verds amb una creu de color negre per apropar; al botó verd amb un guió per allunyar la imatge; o en les fletxes verdes per a mapes adjacents.


METAR-TAF: